Time;durP1;ratioP1;P1;durP2;ratioP2;P2;SDS_P1;SDS_P2;PMS_P1;PMS_P2;Temp;Humidity;BMP_temperature;BMP_pressure;BME280_temperature;BME280_humidity;BME280_pressure;Samples;Min_cycle;Max_cycle;Signal;HPM_P1;HPM_P2
2020/12/16 00:00:09;;;;;;;2.03;0.40;;;;;;;10.61;100.00;101017.63;4972256;28;20190;-77
2020/12/16 00:02:37;;;;;;;4.80;0.77;;;;;;;10.60;100.00;101026.84;4972627;28;20206;-77
2020/12/16 00:05:04;;;;;;;2.73;0.60;;;;;;;10.58;100.00;101029.09;4965799;28;20545;-77
2020/12/16 00:07:30;;;;;;;2.43;0.47;;;;;;;10.61;100.00;101027.59;4954869;28;20441;-78
2020/12/16 00:09:55;;;;;;;2.63;0.50;;;;;;;10.60;100.00;101018.75;4969941;28;20443;-77
2020/12/16 00:12:21;;;;;;;2.23;0.40;;;;;;;10.48;100.00;101016.13;4970324;28;20448;-77
2020/12/16 00:14:46;;;;;;;2.87;0.50;;;;;;;10.33;100.00;101022.25;4961510;28;20695;-77
2020/12/16 00:17:12;;;;;;;3.40;0.90;;;;;;;10.30;100.00;101022.94;4970280;28;20186;-77
2020/12/16 00:19:38;;;;;;;2.47;0.80;;;;;;;10.39;100.00;101028.19;4944567;28;20618;-77
2020/12/16 00:22:03;;;;;;;1.37;0.23;;;;;;;10.42;100.00;101030.97;4970345;28;20183;-77
2020/12/16 00:24:29;;;;;;;3.07;0.40;;;;;;;10.42;100.00;101025.56;4954293;28;20242;-76
2020/12/16 00:26:58;;;;;;;1.63;0.33;;;;;;;10.48;100.00;101032.28;4971350;28;20191;-77
2020/12/16 00:29:23;;;;;;;1.83;0.50;;;;;;;10.52;100.00;101030.47;4953776;28;20728;-77
2020/12/16 00:31:49;;;;;;;2.80;0.60;;;;;;;10.43;100.00;101035.22;4949276;28;20458;-77
2020/12/16 00:34:14;;;;;;;3.17;0.80;;;;;;;10.51;100.00;101042.34;4952666;28;20203;-77
2020/12/16 00:36:40;;;;;;;2.27;0.70;;;;;;;10.56;100.00;101052.09;4970423;28;20184;-77
2020/12/16 00:39:08;;;;;;;2.57;0.70;;;;;;;10.57;100.00;101059.81;4973003;28;20606;-77
2020/12/16 00:41:33;;;;;;;2.00;0.40;;;;;;;10.61;100.00;101049.16;4969133;28;20457;-76
2020/12/16 00:44:00;;;;;;;2.67;0.67;;;;;;;10.61;100.00;101058.00;4958195;28;20467;-77
2020/12/16 00:46:25;;;;;;;2.07;0.60;;;;;;;10.50;100.00;101056.97;4958785;28;20188;-76
2020/12/16 00:48:51;;;;;;;2.13;0.47;;;;;;;10.38;100.00;101050.81;4975110;28;20574;-78
2020/12/16 00:51:18;;;;;;;1.93;0.50;;;;;;;10.50;100.00;101056.16;4956133;28;20197;-76
2020/12/16 00:53:44;;;;;;;3.37;1.07;;;;;;;10.52;100.00;101049.31;4959352;28;20440;-77
2020/12/16 00:56:10;;;;;;;1.93;0.50;;;;;;;10.49;100.00;101052.69;4954237;28;20985;-77
2020/12/16 00:58:36;;;;;;;2.33;0.60;;;;;;;10.30;100.00;101057.94;4957322;28;20600;-77
2020/12/16 01:01:03;;;;;;;2.60;0.43;;;;;;;10.37;100.00;101068.13;4958413;28;20459;-77
2020/12/16 01:03:29;;;;;;;1.97;0.40;;;;;;;10.39;100.00;101066.66;4958439;28;20213;-78
2020/12/16 01:05:55;;;;;;;2.30;0.57;;;;;;;10.34;100.00;101064.19;4953127;28;20439;-77
2020/12/16 01:08:22;;;;;;;3.00;0.60;;;;;;;10.41;100.00;101069.00;4940652;28;20183;-76
2020/12/16 01:10:49;;;;;;;2.20;0.50;;;;;;;10.36;100.00;101064.63;4956594;28;20466;-77
2020/12/16 01:13:16;;;;;;;2.07;0.47;;;;;;;10.40;100.00;101070.13;4954593;28;21053;-78
2020/12/16 01:15:41;;;;;;;3.70;0.83;;;;;;;10.51;100.00;101073.91;4940920;28;20466;-77
2020/12/16 01:18:07;;;;;;;3.00;0.60;;;;;;;10.51;100.00;101079.28;4974108;28;20427;-77
2020/12/16 01:20:39;;;;;;;3.13;0.80;;;;;;;10.55;100.00;101091.69;4952379;28;20453;-76
2020/12/16 01:23:06;;;;;;;2.37;0.40;;;;;;;10.48;100.00;101078.06;4954350;28;20645;-77
2020/12/16 01:25:33;;;;;;;4.10;1.07;;;;;;;10.50;100.00;101078.50;4956158;28;20838;-77
2020/12/16 01:28:03;;;;;;;4.80;0.87;;;;;;;10.51;100.00;101082.75;4956062;28;20954;-78
2020/12/16 01:30:35;;;;;;;1.97;0.43;;;;;;;10.56;100.00;101079.03;4976034;28;20544;-77
2020/12/16 01:33:01;;;;;;;3.20;0.60;;;;;;;10.56;100.00;101077.13;4940217;28;20519;-77
2020/12/16 01:35:26;;;;;;;2.00;0.40;;;;;;;10.56;100.00;101089.81;4962244;28;20207;-77
2020/12/16 01:37:54;;;;;;;2.53;0.50;;;;;;;10.57;100.00;101088.66;4955219;28;20640;-77
2020/12/16 01:40:24;;;;;;;2.40;0.40;;;;;;;10.56;100.00;101090.59;4939736;28;20974;-77
2020/12/16 01:42:50;;;;;;;2.30;0.60;;;;;;;10.57;100.00;101083.28;4972628;28;20465;-77
2020/12/16 01:45:20;;;;;;;3.10;0.60;;;;;;;10.56;100.00;101082.50;4953963;28;20475;-77
2020/12/16 01:47:47;;;;;;;2.50;0.50;;;;;;;10.57;100.00;101075.97;4954532;28;20274;-78
2020/12/16 01:50:17;;;;;;;2.33;0.70;;;;;;;10.56;100.00;101085.19;4955312;28;20447;-77
2020/12/16 01:52:45;;;;;;;4.90;1.10;;;;;;;10.54;100.00;101082.06;4938990;28;20451;-76
2020/12/16 01:55:12;;;;;;;3.80;0.90;;;;;;;10.56;100.00;101095.19;4953156;28;20482;-76
2020/12/16 01:57:54;;;;;;;2.77;0.97;;;;;;;10.55;100.00;101105.16;4955711;28;20457;-77
2020/12/16 02:00:24;;;;;;;2.27;0.50;;;;;;;10.57;100.00;101107.50;4957421;28;20457;-77
2020/12/16 02:02:56;;;;;;;2.27;0.30;;;;;;;10.58;100.00;101107.19;4954297;28;20473;-76
2020/12/16 02:05:39;;;;;;;2.07;0.47;;;;;;;10.57;100.00;101111.00;4953455;28;20465;-77
2020/12/16 02:08:11;;;;;;;2.63;0.60;;;;;;;10.56;100.00;101111.34;4953682;28;20956;-77
2020/12/16 02:10:40;;;;;;;2.30;0.60;;;;;;;10.59;100.00;101100.66;4959714;28;20450;-77
2020/12/16 02:13:06;;;;;;;2.87;0.60;;;;;;;10.58;100.00;101103.69;4958580;28;20433;-77
2020/12/16 02:15:36;;;;;;;1.67;0.50;;;;;;;10.58;100.00;101119.88;4953716;28;20466;-77
2020/12/16 02:18:01;;;;;;;1.60;0.20;;;;;;;10.58;100.00;101109.09;4969899;28;20449;-79
2020/12/16 02:20:27;;;;;;;2.17;0.50;;;;;;;10.56;100.00;101117.53;4966621;28;20179;-77
2020/12/16 02:22:56;;;;;;;2.53;0.70;;;;;;;10.55;100.00;101110.56;4969620;28;20258;-77
2020/12/16 02:25:30;;;;;;;2.83;0.60;;;;;;;10.58;100.00;101126.03;4956783;28;20470;-77
2020/12/16 02:28:01;;;;;;;3.60;0.60;;;;;;;10.56;100.00;101122.91;4970501;28;20812;-77
2020/12/16 02:30:31;;;;;;;2.60;0.43;;;;;;;10.56;100.00;101122.13;4937240;28;21055;-77
2020/12/16 02:33:20;;;;;;;4.07;0.80;;;;;;;10.53;100.00;101120.13;4953175;28;20980;-77
2020/12/16 02:35:59;;;;;;;1.60;0.30;;;;;;;10.52;100.00;101132.00;4951439;28;20458;-79
2020/12/16 02:38:46;;;;;;;2.10;0.53;;;;;;;10.49;100.00;101124.63;4954725;28;20439;-76
2020/12/16 02:41:14;;;;;;;4.17;0.53;;;;;;;10.53;100.00;101128.97;4949550;28;20441;-78
2020/12/16 02:43:40;;;;;;;2.40;0.60;;;;;;;10.55;100.00;101136.72;4950283;28;20470;-77
2020/12/16 02:46:06;;;;;;;1.90;0.50;;;;;;;10.54;100.00;101137.81;4953025;28;20194;-77
2020/12/16 02:48:32;;;;;;;3.80;1.10;;;;;;;10.53;100.00;101139.72;4956744;28;20185;-77
2020/12/16 02:50:58;;;;;;;2.87;0.60;;;;;;;10.52;100.00;101142.78;4950371;28;21000;-76
2020/12/16 02:53:26;;;;;;;3.23;0.80;;;;;;;10.51;100.00;101149.28;4948819;28;20453;-77
2020/12/16 02:56:14;;;;;;;2.83;0.70;;;;;;;10.51;100.00;101147.38;4971187;28;20958;-77
2020/12/16 02:58:50;;;;;;;1.70;0.43;;;;;;;10.52;100.00;101153.53;4952215;28;20536;-77
2020/12/16 03:01:16;;;;;;;2.10;0.73;;;;;;;10.49;100.00;101149.63;4953335;28;20606;-77
2020/12/16 03:04:05;;;;;;;3.30;0.47;;;;;;;10.40;100.00;101159.75;4952808;28;20527;-77
2020/12/16 03:06:55;;;;;;;3.00;0.60;;;;;;;10.33;100.00;101156.06;4963470;28;20442;-77
2020/12/16 03:09:26;;;;;;;2.47;0.70;;;;;;;10.42;100.00;101160.19;4952672;28;20453;-77
2020/12/16 03:11:54;;;;;;;3.00;0.50;;;;;;;10.44;100.00;101154.47;4970064;28;21030;-77
2020/12/16 03:14:24;;;;;;;2.67;0.70;;;;;;;10.32;100.00;101157.19;4958541;28;21006;-77
2020/12/16 03:16:54;;;;;;;2.60;0.60;;;;;;;10.24;100.00;101160.81;4953567;28;20454;-77
2020/12/16 03:19:24;;;;;;;2.80;0.70;;;;;;;10.27;100.00;101162.81;4951131;28;20908;-77
2020/12/16 03:21:49;;;;;;;2.77;0.57;;;;;;;10.24;100.00;101164.25;4971259;28;20442;-77
2020/12/16 03:24:24;;;;;;;3.70;0.63;;;;;;;10.30;100.00;101165.59;4949635;28;20203;-77
2020/12/16 03:26:59;;;;;;;3.97;0.73;;;;;;;10.27;100.00;101174.38;4944505;28;21010;-77
2020/12/16 03:29:56;;;;;;;2.73;0.40;;;;;;;10.32;100.00;101170.63;4959315;28;20443;-77
2020/12/16 03:32:39;;;;;;;1.70;0.40;;;;;;;10.36;100.00;101179.59;4952663;28;20499;-77
2020/12/16 03:35:15;;;;;;;2.13;0.40;;;;;;;10.39;100.00;101182.44;4949552;28;20466;-77
2020/12/16 03:37:40;;;;;;;3.67;0.80;;;;;;;10.39;100.00;101184.31;4949964;28;20862;-76
2020/12/16 03:40:06;;;;;;;2.37;0.70;;;;;;;10.43;100.00;101179.84;4955370;28;20180;-77
2020/12/16 03:42:41;;;;;;;2.37;0.50;;;;;;;10.41;100.00;101177.47;4947158;28;20446;-77
2020/12/16 03:45:07;;;;;;;3.83;0.80;;;;;;;10.43;100.00;101175.22;4935903;28;20537;-77
2020/12/16 03:47:37;;;;;;;2.80;0.70;;;;;;;10.42;100.00;101176.34;4952481;28;20438;-77
2020/12/16 03:50:03;;;;;;;2.60;0.40;;;;;;;10.41;100.00;101177.47;4949533;28;20823;-77
2020/12/16 03:52:29;;;;;;;2.60;0.70;;;;;;;10.38;100.00;101174.66;4950729;28;20462;-77
2020/12/16 03:55:05;;;;;;;2.53;0.60;;;;;;;10.26;100.00;101172.78;4952311;28;20202;-77
2020/12/16 03:57:50;;;;;;;1.97;0.53;;;;;;;10.33;100.00;101172.22;4954124;28;20447;-77
2020/12/16 04:00:31;;;;;;;3.00;0.73;;;;;;;10.36;100.00;101168.84;4939678;28;20454;-77
2020/12/16 04:03:02;;;;;;;1.63;0.33;;;;;;;10.35;100.00;101168.06;4941952;28;20464;-77
2020/12/16 04:05:44;;;;;;;2.50;0.60;;;;;;;10.33;100.00;101173.00;4952133;28;20465;-76
2020/12/16 04:08:09;;;;;;;4.37;0.90;;;;;;;10.34;100.00;101185.34;4950898;28;20450;-77
2020/12/16 04:10:54;;;;;;;1.90;0.40;;;;;;;10.34;100.00;101189.94;4949497;28;20206;-77
2020/12/16 04:13:20;;;;;;;3.30;0.73;;;;;;;10.32;100.00;101198.34;4949081;28;20437;-77
2020/12/16 04:15:46;;;;;;;2.10;0.50;;;;;;;10.31;100.00;101196.78;4944566;28;20520;-76
2020/12/16 04:18:13;;;;;;;2.80;0.70;;;;;;;10.33;100.00;101197.25;4970974;28;20641;-76
2020/12/16 04:20:39;;;;;;;2.07;0.47;;;;;;;10.29;100.00;101211.72;4955073;28;20450;-76
2020/12/16 04:23:05;;;;;;;1.83;0.50;;;;;;;10.26;100.00;101213.16;4954285;28;20991;-76
2020/12/16 04:25:33;;;;;;;2.90;0.60;;;;;;;10.28;100.00;101213.59;4955738;28;20742;-76
2020/12/16 04:28:00;;;;;;;2.40;0.63;;;;;;;10.32;100.00;101214.50;4954069;28;20443;-76
2020/12/16 04:30:27;;;;;;;2.50;0.87;;;;;;;10.30;100.00;101210.59;4955800;28;20434;-76
2020/12/16 04:32:59;;;;;;;2.90;0.77;;;;;;;10.20;100.00;101214.50;4961681;28;20442;-76
2020/12/16 04:35:27;;;;;;;3.00;0.80;;;;;;;10.23;100.00;101221.91;4951827;28;20483;-77
2020/12/16 04:37:55;;;;;;;2.70;0.50;;;;;;;10.28;100.00;101212.84;4946130;28;20446;-76
2020/12/16 04:40:21;;;;;;;3.30;1.17;;;;;;;10.29;100.00;101217.88;4956037;28;20782;-76
2020/12/16 04:43:08;;;;;;;2.37;0.47;;;;;;;10.31;100.00;101218.31;4969956;28;20470;-76
2020/12/16 04:45:39;;;;;;;3.33;0.90;;;;;;;10.26;100.00;101215.09;4970986;28;21044;-76
2020/12/16 04:48:05;;;;;;;5.63;1.07;;;;;;;10.28;100.00;101200.16;4959978;28;20438;-77
2020/12/16 04:50:31;;;;;;;3.73;0.90;;;;;;;10.28;100.00;101202.84;4953546;28;20455;-76
2020/12/16 04:53:24;;;;;;;3.33;0.70;;;;;;;10.29;100.00;101201.72;4950083;28;20819;-76
2020/12/16 04:56:03;;;;;;;3.53;0.77;;;;;;;10.32;100.00;101209.13;4953485;28;20457;-76
2020/12/16 04:58:47;;;;;;;4.00;1.03;;;;;;;10.33;100.00;101220.69;4946809;28;20981;-76
2020/12/16 05:01:14;;;;;;;2.07;0.53;;;;;;;10.30;100.00;101222.13;4954225;28;20538;-77
2020/12/16 05:03:46;;;;;;;2.50;0.50;;;;;;;10.33;100.00;101220.69;4950139;28;20475;-79
2020/12/16 05:06:40;;;;;;;2.57;1.00;;;;;;;10.32;100.00;101222.56;4970793;28;20451;-76
2020/12/16 05:09:08;;;;;;;4.50;1.20;;;;;;;10.30;100.00;101218.66;4953952;28;20798;-76
2020/12/16 05:11:35;;;;;;;4.93;1.20;;;;;;;10.32;100.00;101237.94;4954000;28;20547;-77
2020/12/16 05:14:31;;;;;;;2.60;0.63;;;;;;;10.29;100.00;101247.50;4970362;28;20914;-76
2020/12/16 05:17:04;;;;;;;2.10;0.50;;;;;;;10.32;100.00;101246.81;4915934;29;20591;-77
2020/12/16 05:19:44;;;;;;;2.47;0.63;;;;;;;10.30;100.00;101254.44;4893195;29;20513;-78
2020/12/16 05:22:24;;;;;;;3.23;0.80;;;;;;;10.27;100.00;101249.72;4915490;29;21038;-76
2020/12/16 05:24:55;;;;;;;3.30;0.83;;;;;;;10.29;100.00;101255.56;4907550;29;20523;-77
2020/12/16 05:27:26;;;;;;;3.43;0.70;;;;;;;10.29;100.00;101252.09;4909226;29;20551;-79
2020/12/16 05:29:58;;;;;;;2.20;0.60;;;;;;;10.31;100.00;101249.84;4905733;29;20510;-77
2020/12/16 05:32:27;;;;;;;2.93;0.63;;;;;;;10.34;100.00;101252.63;4905136;29;21005;-77
2020/12/16 05:34:53;;;;;;;2.70;0.60;;;;;;;10.26;100.00;101247.38;4913858;29;20480;-76
2020/12/16 05:37:37;;;;;;;2.43;0.70;;;;;;;10.24;100.00;101247.69;4912777;29;20837;-77
2020/12/16 05:40:14;;;;;;;4.47;0.50;;;;;;;10.26;100.00;101253.53;4906227;29;20508;-77
2020/12/16 05:42:40;;;;;;;2.83;0.90;;;;;;;10.26;100.00;101253.53;4911211;29;20506;-78
2020/12/16 05:45:10;;;;;;;2.00;0.60;;;;;;;10.26;100.00;101260.84;4912337;29;20485;-77
2020/12/16 05:47:39;;;;;;;2.03;0.40;;;;;;;10.30;100.00;101259.06;4911864;29;20440;-77
2020/12/16 05:50:28;;;;;;;2.57;0.70;;;;;;;10.31;100.00;101263.28;4894779;29;20461;-76
2020/12/16 05:53:13;;;;;;;4.00;0.63;;;;;;;10.33;100.00;101261.06;4910631;28;20454;-77
2020/12/16 05:55:39;;;;;;;2.23;0.60;;;;;;;10.25;100.00;101262.75;4971169;28;20476;-76
2020/12/16 05:58:07;;;;;;;3.97;1.10;;;;;;;10.37;100.00;101264.66;4969226;28;20478;-76
2020/12/16 06:00:43;;;;;;;3.47;0.70;;;;;;;10.34;100.00;101260.72;4952722;28;20445;-78
2020/12/16 06:03:15;;;;;;;4.80;0.77;;;;;;;10.35;100.00;101259.59;4968422;28;20468;-77
2020/12/16 06:05:44;;;;;;;3.00;0.70;;;;;;;10.31;100.00;101260.59;4950924;28;21067;-77
2020/12/16 06:08:10;;;;;;;3.83;0.90;;;;;;;10.33;100.00;101255.66;4971824;28;20439;-77
2020/12/16 06:10:38;;;;;;;2.47;0.53;;;;;;;10.32;100.00;101265.66;4955000;28;20545;-77
2020/12/16 06:13:05;;;;;;;2.33;0.57;;;;;;;10.21;100.00;101272.59;4952893;28;20192;-77
2020/12/16 06:15:52;;;;;;;3.10;0.63;;;;;;;10.11;100.00;101283.81;4968655;28;20580;-78
2020/12/16 06:18:20;;;;;;;5.07;1.00;;;;;;;10.14;100.00;101272.41;4968503;28;20450;-76
2020/12/16 06:20:46;;;;;;;3.20;0.67;;;;;;;10.13;100.00;101281.56;4962287;28;20442;-77
2020/12/16 06:23:19;;;;;;;3.33;0.90;;;;;;;10.13;100.00;101278.09;4946946;28;20999;-77
2020/12/16 06:25:49;;;;;;;3.47;0.93;;;;;;;10.17;100.00;101282.47;4967407;28;20477;-77
2020/12/16 06:28:15;;;;;;;2.53;0.80;;;;;;;10.12;100.00;101290.00;4967073;28;20540;-78
2020/12/16 06:30:50;;;;;;;1.93;0.50;;;;;;;10.14;100.00;101293.94;4970716;28;20446;-77
2020/12/16 06:33:56;;;;;;;3.87;0.87;;;;;;;10.09;100.00;101296.78;4969429;28;20958;-76
2020/12/16 06:36:29;;;;;;;1.80;0.50;;;;;;;10.10;100.00;101295.72;4946143;28;20533;-77
2020/12/16 06:38:56;;;;;;;3.27;1.03;;;;;;;10.16;100.00;101299.75;4954799;28;21819;-77
2020/12/16 06:41:31;;;;;;;3.93;0.90;;;;;;;10.02;100.00;101302.75;4969210;28;20445;-77
2020/12/16 06:44:18;;;;;;;3.43;0.73;;;;;;;9.99;100.00;101289.94;4956142;28;20480;-77
2020/12/16 06:46:45;;;;;;;2.13;0.33;;;;;;;10.11;100.00;101299.97;4949356;28;20956;-77
2020/12/16 06:49:13;;;;;;;4.03;0.60;;;;;;;10.04;100.00;101299.72;4945472;28;21218;-77
2020/12/16 06:51:44;;;;;;;3.03;0.40;;;;;;;10.09;100.00;101302.16;4966799;28;20445;-78
2020/12/16 06:54:13;;;;;;;2.70;0.50;;;;;;;10.00;100.00;101296.13;4947493;28;20457;-77
2020/12/16 06:56:40;;;;;;;2.47;0.70;;;;;;;10.08;100.00;101303.31;4968460;28;20811;-76
2020/12/16 06:59:06;;;;;;;2.43;0.60;;;;;;;10.02;100.00;101300.06;4965095;28;20449;-77
2020/12/16 07:01:31;;;;;;;1.90;0.50;;;;;;;10.07;100.00;101307.09;4965188;28;20504;-77
2020/12/16 07:03:57;;;;;;;2.50;0.30;;;;;;;10.01;100.00;101308.44;4964597;28;20482;-77
2020/12/16 07:06:28;;;;;;;3.30;0.70;;;;;;;9.87;100.00;101307.97;4959561;28;20228;-77
2020/12/16 07:09:16;;;;;;;3.07;0.60;;;;;;;9.94;100.00;101305.53;4965858;28;20253;-76
2020/12/16 07:11:54;;;;;;;2.63;0.67;;;;;;;9.87;100.00;101308.75;4956490;28;20451;-77
2020/12/16 07:14:27;;;;;;;2.73;0.73;;;;;;;9.90;100.00;101307.31;4964774;28;20463;-77
2020/12/16 07:17:04;;;;;;;2.20;0.43;;;;;;;9.94;100.00;101325.16;4947593;28;20615;-77
2020/12/16 07:19:30;;;;;;;2.40;0.50;;;;;;;9.93;100.00;101323.56;4964248;28;20445;-77
2020/12/16 07:21:55;;;;;;;2.90;0.60;;;;;;;9.73;100.00;101327.13;4947861;28;20465;-76
2020/12/16 07:24:23;;;;;;;4.03;0.87;;;;;;;9.70;100.00;101327.75;4969647;28;20213;-77
2020/12/16 07:26:55;;;;;;;4.50;0.60;;;;;;;9.65;100.00;101327.97;4967283;28;20197;-77
2020/12/16 07:29:34;;;;;;;1.77;0.40;;;;;;;9.72;100.00;101330.91;4970396;28;20830;-77
2020/12/16 07:32:06;;;;;;;2.60;0.57;;;;;;;9.67;100.00;101322.25;4962592;28;20450;-77
2020/12/16 07:34:43;;;;;;;2.67;0.60;;;;;;;9.79;100.00;101325.75;4934935;28;20469;-77
2020/12/16 07:37:09;;;;;;;1.67;0.27;;;;;;;9.75;100.00;101334.84;4965611;28;20491;-76
2020/12/16 07:39:44;;;;;;;2.10;0.50;;;;;;;9.63;100.00;101342.88;4969411;28;20430;-76
2020/12/16 07:42:09;;;;;;;1.90;0.30;;;;;;;9.67;100.00;101349.94;4963022;28;20438;-76
2020/12/16 07:44:35;;;;;;;2.57;0.50;;;;;;;9.45;100.00;101341.44;4967686;28;21104;-76
2020/12/16 07:47:01;;;;;;;2.60;0.47;;;;;;;9.60;100.00;101349.69;4966355;28;20619;-76
2020/12/16 07:49:29;;;;;;;2.03;0.30;;;;;;;9.52;100.00;101339.03;4947353;28;20204;-76
2020/12/16 07:52:02;;;;;;;3.00;0.67;;;;;;;9.32;100.00;101339.81;4949735;28;20441;-76
2020/12/16 07:54:29;;;;;;;3.30;0.43;;;;;;;9.16;100.00;101338.84;4972692;28;22782;-76
2020/12/16 07:56:55;;;;;;;2.37;0.40;;;;;;;9.21;100.00;101344.03;4954449;28;20449;-77
2020/12/16 07:59:24;;;;;;;2.47;0.33;;;;;;;9.20;100.00;101340.53;4972282;28;20461;-77
2020/12/16 08:01:50;;;;;;;2.63;0.63;;;;;;;9.04;100.00;101347.63;4970116;28;20191;-75
2020/12/16 08:04:16;;;;;;;1.83;0.30;;;;;;;9.22;100.00;101345.59;4973093;28;20480;-77
2020/12/16 08:06:42;;;;;;;2.03;0.40;;;;;;;9.12;100.00;101344.06;4968332;28;20201;-76
2020/12/16 08:09:20;;;;;;;2.50;0.40;;;;;;;8.93;100.00;101349.91;4955190;28;20217;-77
2020/12/16 08:11:45;;;;;;;2.23;0.20;;;;;;;9.04;100.00;101350.28;4966677;28;20863;-77
2020/12/16 08:14:11;;;;;;;1.77;0.20;;;;;;;8.91;100.00;101359.41;4950240;28;20530;-77
2020/12/16 08:16:36;;;;;;;2.07;0.27;;;;;;;8.94;100.00;101353.41;4970119;28;20246;-77
2020/12/16 08:19:03;;;;;;;1.27;0.10;;;;;;;8.68;100.00;101352.75;4973258;28;20569;-77
2020/12/16 08:21:29;;;;;;;3.37;0.50;;;;;;;8.62;100.00;101362.88;4953671;28;20197;-76
2020/12/16 08:23:55;;;;;;;4.70;0.40;;;;;;;8.73;100.00;101366.00;4969411;28;21032;-76
2020/12/16 08:26:23;;;;;;;1.73;0.20;;;;;;;8.67;100.00;101361.91;4965455;28;20473;-75
2020/12/16 08:28:49;;;;;;;4.30;0.50;;;;;;;8.81;100.00;101365.94;4973167;28;20445;-76
2020/12/16 08:31:19;;;;;;;2.50;0.40;;;;;;;8.64;100.00;101360.66;4973185;28;20800;-75
2020/12/16 08:33:48;;;;;;;3.30;0.30;;;;;;;8.67;100.00;101357.31;4961780;28;20179;-77
2020/12/16 08:36:22;;;;;;;2.80;0.57;;;;;;;8.88;100.00;101370.81;4973048;28;20456;-74
2020/12/16 08:38:50;;;;;;;1.90;0.30;;;;;;;8.59;100.00;101363.53;4972813;28;20477;-76
2020/12/16 08:41:27;;;;;;;2.57;0.40;;;;;;;8.74;100.00;101372.94;4973711;28;20836;-76
2020/12/16 08:43:54;;;;;;;1.80;0.30;;;;;;;8.62;100.00;101373.63;4969890;28;20862;-76
2020/12/16 08:46:23;;;;;;;1.93;0.30;;;;;;;8.78;100.00;101377.34;4956779;28;20441;-76
2020/12/16 08:48:59;;;;;;;2.63;0.27;;;;;;;8.74;100.00;101376.41;4969521;28;20445;-75
2020/12/16 08:51:34;;;;;;;1.70;0.10;;;;;;;8.79;100.00;101375.41;4963522;28;20573;-75
2020/12/16 08:54:01;;;;;;;2.63;0.60;;;;;;;8.69;100.00;101384.63;4968854;28;20475;-76
2020/12/16 08:56:31;;;;;;;2.10;0.40;;;;;;;8.70;100.00;101377.38;4968492;28;20452;-75
2020/12/16 08:59:02;;;;;;;3.03;0.70;;;;;;;8.73;100.00;101390.94;4969627;28;20453;-77
2020/12/16 09:01:28;;;;;;;2.97;0.60;;;;;;;8.48;100.00;101380.34;4969905;28;20459;-76
2020/12/16 09:03:54;;;;;;;2.53;0.33;;;;;;;8.67;100.00;101386.09;4969088;28;20466;-76
2020/12/16 09:06:19;;;;;;;1.97;0.23;;;;;;;8.95;100.00;101382.59;4965964;28;20273;-75
2020/12/16 09:08:45;;;;;;;2.53;0.43;;;;;;;9.00;100.00;101387.78;4951430;28;20711;-77
2020/12/16 09:11:10;;;;;;;2.97;0.63;;;;;;;8.89;100.00;101394.66;4966436;28;20889;-77
2020/12/16 09:13:36;;;;;;;1.57;0.30;;;;;;;8.74;100.00;101403.25;4952778;28;20190;-76
2020/12/16 09:16:01;;;;;;;2.67;0.20;;;;;;;8.71;100.00;101403.13;4969705;28;20182;-76
2020/12/16 09:18:29;;;;;;;1.97;0.37;;;;;;;8.71;100.00;101398.53;4972382;28;20666;-76
2020/12/16 09:20:56;;;;;;;3.80;0.60;;;;;;;8.85;100.00;101398.28;4960810;28;20178;-75
2020/12/16 09:23:23;;;;;;;4.60;1.17;;;;;;;8.97;100.00;101401.88;4961656;28;20564;-76
2020/12/16 09:25:51;;;;;;;2.50;0.70;;;;;;;9.12;100.00;101410.47;4971232;28;20476;-77
2020/12/16 09:28:17;;;;;;;5.20;0.60;;;;;;;9.23;100.00;101401.72;4971062;28;20456;-76
2020/12/16 09:30:43;;;;;;;1.50;0.27;;;;;;;9.27;100.00;101401.84;4968893;28;20458;-77
2020/12/16 09:33:14;;;;;;;2.70;0.23;;;;;;;9.26;100.00;101398.34;4966142;28;20785;-77
2020/12/16 09:35:40;;;;;;;2.53;0.43;;;;;;;9.13;100.00;101406.66;4971531;28;21025;-75
2020/12/16 09:38:17;;;;;;;2.70;0.30;;;;;;;9.05;100.00;101406.41;4955584;28;20969;-76
2020/12/16 09:40:43;;;;;;;2.70;0.40;;;;;;;9.08;100.00;101411.13;4971699;28;20536;-77
2020/12/16 09:43:10;;;;;;;3.30;0.53;;;;;;;8.96;100.00;101410.25;4969953;28;20556;-76
2020/12/16 09:45:39;;;;;;;2.40;0.47;;;;;;;8.93;100.00;101411.69;4959941;28;20564;-76
2020/12/16 09:48:07;;;;;;;2.37;0.63;;;;;;;9.07;100.00;101414.13;4962154;28;20458;-74
2020/12/16 09:50:36;;;;;;;2.67;0.47;;;;;;;9.03;100.00;101411.31;4959880;28;20824;-76
2020/12/16 09:53:05;;;;;;;5.23;0.70;;;;;;;9.10;100.00;101416.94;4950458;28;20576;-77
2020/12/16 09:55:36;;;;;;;2.80;0.57;;;;;;;9.12;100.00;101411.25;4950484;28;20564;-76
2020/12/16 09:58:07;;;;;;;2.33;0.50;;;;;;;9.23;100.00;101406.28;4969158;28;20890;-75
2020/12/16 10:00:34;;;;;;;2.70;0.47;;;;;;;9.28;100.00;101414.16;4969015;28;20528;-76
2020/12/16 10:03:02;;;;;;;2.40;0.23;;;;;;;9.44;100.00;101415.16;4967044;28;20892;-76
2020/12/16 10:05:29;;;;;;;2.87;0.60;;;;;;;9.06;100.00;101416.03;4948031;28;21105;-76
2020/12/16 10:07:54;;;;;;;2.00;0.40;;;;;;;8.94;100.00;101420.53;4949222;28;20532;-76
2020/12/16 10:10:21;;;;;;;2.20;0.23;;;;;;;9.13;100.00;101409.34;4969654;28;20533;-75
2020/12/16 10:12:47;;;;;;;3.30;0.80;;;;;;;8.99;100.00;101410.38;4966765;28;20485;-75
2020/12/16 10:15:14;;;;;;;2.03;0.30;;;;;;;9.02;100.00;101401.66;4958487;28;20472;-76
2020/12/16 10:17:40;;;;;;;2.20;0.50;;;;;;;9.14;100.00;101394.81;4964359;28;20457;-76
2020/12/16 10:20:05;;;;;;;2.20;0.40;;;;;;;9.29;100.00;101396.94;4940747;28;20462;-76
2020/12/16 10:22:31;;;;;;;2.07;0.30;;;;;;;9.43;100.00;101398.22;4949647;28;20190;-76
2020/12/16 10:24:57;;;;;;;3.27;0.47;;;;;;;9.50;100.00;101395.81;4967072;28;20205;-75
2020/12/16 10:27:23;;;;;;;1.47;0.30;;;;;;;9.58;100.00;101400.31;4958954;28;20222;-74
2020/12/16 10:29:49;;;;;;;2.00;0.50;;;;;;;9.69;100.00;101406.09;4962922;28;20938;-76
2020/12/16 10:32:15;;;;;;;3.10;0.80;;;;;;;9.47;100.00;101411.78;4945935;28;20936;-76
2020/12/16 10:34:44;;;;;;;2.80;0.47;;;;;;;9.23;100.00;101417.03;4948321;28;20678;-75
2020/12/16 10:37:10;;;;;;;3.50;0.50;;;;;;;9.09;100.00;101401.97;4965819;28;20540;-77
2020/12/16 10:39:36;;;;;;;2.53;0.60;;;;;;;9.14;100.00;101405.56;4966833;28;20565;-76
2020/12/16 10:42:02;;;;;;;1.67;0.30;;;;;;;9.19;100.00;101402.69;4964995;28;20296;-77
2020/12/16 10:44:28;;;;;;;2.10;0.30;;;;;;;9.08;100.00;101395.00;4959649;28;20477;-76
2020/12/16 10:46:54;;;;;;;2.90;0.70;;;;;;;9.30;100.00;101393.09;4962307;28;20655;-76
2020/12/16 10:49:24;;;;;;;5.50;0.60;;;;;;;9.30;100.00;101391.22;4956660;28;20446;-74
2020/12/16 10:52:02;;;;;;;2.60;0.57;;;;;;;9.20;100.00;101393.50;4941126;28;20442;-77
2020/12/16 10:54:27;;;;;;;4.77;1.10;;;;;;;9.30;100.00;101399.28;4966089;28;20461;-76
2020/12/16 10:56:54;;;;;;;3.17;0.60;;;;;;;9.39;100.00;101396.53;4942735;28;20843;-76
2020/12/16 10:59:25;;;;;;;4.73;0.90;;;;;;;9.39;100.00;101405.38;4947371;28;20212;-75
2020/12/16 11:02:11;;;;;;;2.70;0.70;;;;;;;9.46;100.00;101402.16;4961039;28;20446;-74
2020/12/16 11:04:37;;;;;;;1.87;0.37;;;;;;;9.49;100.00;101396.91;4871724;29;20493;-76
2020/12/16 11:07:03;;;;;;;3.00;0.63;;;;;;;9.38;100.00;101389.56;4850470;29;20490;-77
2020/12/16 11:09:31;;;;;;;2.93;0.50;;;;;;;9.53;100.00;101392.47;4877479;29;20257;-77
2020/12/16 11:11:57;;;;;;;2.70;0.50;;;;;;;9.71;100.00;101385.81;4869624;29;20201;-77
2020/12/16 11:14:25;;;;;;;3.70;0.80;;;;;;;9.61;100.00;101388.13;4874683;29;20522;-77
2020/12/16 11:16:51;;;;;;;3.10;0.60;;;;;;;9.71;100.00;101401.16;4874320;29;20207;-77
2020/12/16 11:19:17;;;;;;;3.47;0.60;;;;;;;9.18;100.00;101390.34;4867930;29;20474;-76
2020/12/16 11:21:51;;;;;;;1.70;0.50;;;;;;;9.39;100.00;101383.88;4869961;29;20576;-76
2020/12/16 11:24:21;;;;;;;2.43;0.50;;;;;;;9.44;100.00;101385.59;4870432;29;20546;-77
2020/12/16 11:26:50;;;;;;;4.73;0.70;;;;;;;9.28;100.00;101388.06;4866502;29;20974;-76
2020/12/16 11:29:18;;;;;;;2.90;0.50;;;;;;;9.24;100.00;101400.59;4870829;29;20455;-78
2020/12/16 11:31:46;;;;;;;2.00;0.43;;;;;;;9.01;100.00;101400.09;4848027;29;20511;-77